Wetterdaten: Woche 09.12.13 - 15.12.13 (KW50)
Datum Zeit Temp. A. Feuchte A. Luftdruck Regen Wind Richtung Taupunkt Windchill Windben
09.12.2013 00:00 6,3 C 66 % 1025,7 hPa 0,0 l/m 9,1 km/h N 0,3 C 4,2 C 25,3 km/h
09.12.2013 01:00 6,7 C 63 % 1024,2 hPa 0,0 l/m 13,8 km/h N 0,0 C 1,7 C 37,0 km/h
09.12.2013 02:00 7,1 C 62 % 1023,6 hPa 0,0 l/m 17,9 km/h N 0,2 C 0,4 C 49,5 km/h
09.12.2013 03:00 7,2 C 63 % 1023,5 hPa 0,0 l/m 20,6 km/h N 0,6 C -0,5 C 46,7 km/h
09.12.2013 04:00 7,0 C 66 % 1023,1 hPa 0,0 l/m 19,6 km/h N 1,0 C -0,4 C 44,2 km/h
09.12.2013 05:00 7,3 C 65 % 1023,1 hPa 0,0 l/m 19,3 km/h N 1,1 C 0,2 C 43,0 km/h
09.12.2013 06:00 7,6 C 64 % 1022,9 hPa 0,0 l/m 18,9 km/h N 1,2 C 0,6 C 41,8 km/h
09.12.2013 07:00 7,5 C 66 % 1022,4 hPa 0,0 l/m 20,3 km/h N 1,5 C -0,1 C 52,7 km/h
09.12.2013 08:00 7,4 C 68 % 1022,8 hPa 0,0 l/m 21,5 km/h N 2,0 C -0,5 C 48,7 km/h
09.12.2013 09:00 6,9 C 75 % 1023,3 hPa 1,0 l/m 19,2 km/h N 2,8 C -0,4 C 41,8 km/h
09.12.2013 10:00 7,2 C 76 % 1023,5 hPa 0,8 l/m 18,5 km/h N 3,3 C 0,3 C 46,7 km/h
09.12.2013 11:00 7,6 C 74 % 1023,0 hPa 0,3 l/m 21,4 km/h N 3,3 C -0,2 C 48,3 km/h
09.12.2013 12:00 7,5 C 76 % 1023,0 hPa 1,6 l/m 24,7 km/h N 3,5 C -1,5 C 50,7 km/h
09.12.2013 13:00 6,9 C 79 % 1023,2 hPa 2,1 l/m 21,9 km/h N 3,5 C -1,4 C 48,3 km/h
09.12.2013 14:00 6,7 C 80 % 1023,4 hPa 1,8 l/m 22,6 km/h N 3,5 C -1,9 C 47,1 km/h
09.12.2013 15:00 7,0 C 78 % 1024,1 hPa 0,3 l/m 22,0 km/h N 3,4 C -1,3 C 49,9 km/h
09.12.2013 16:00 6,3 C 80 % 1024,5 hPa 0,3 l/m 22,2 km/h N 3,1 C -2,2 C 50,7 km/h
09.12.2013 17:00 6,3 C 80 % 1024,9 hPa 0,0 l/m 26,9 km/h N 3,1 C -3,7 C 51,5 km/h
09.12.2013 18:00 6,9 C 77 % 1025,6 hPa 0,0 l/m 24,7 km/h N 3,2 C -2,2 C 47,1 km/h
09.12.2013 19:00 7,1 C 77 % 1026,0 hPa 0,0 l/m 25,8 km/h N 3,4 C -2,4 C 53,1 km/h
09.12.2013 20:00 7,2 C 76 % 1026,3 hPa 0,0 l/m 24,4 km/h N 3,3 C -1,7 C 50,3 km/h
09.12.2013 21:00 7,3 C 76 % 1027,1 hPa 0,0 l/m 22,0 km/h N 3,4 C -0,8 C 45,5 km/h
09.12.2013 22:00 7,4 C 76 % 1027,6 hPa 0,0 l/m 20,8 km/h N 3,4 C -0,4 C 44,3 km/h
09.12.2013 23:00 7,4 C 77 % 1027,9 hPa 0,0 l/m 18,6 km/h N 3,6 C 0,4 C 38,2 km/h
10.12.2013 00:00 7,5 C 77 % 1028,7 hPa 0,0 l/m 17,0 km/h N 3,7 C 1,2 C 35,4 km/h
10.12.2013 01:00 7,8 C 77 % 1029,1 hPa 0,0 l/m 17,9 km/h N 4,1 C 1,3 C 36,6 km/h
10.12.2013 02:00 7,7 C 78 % 1029,8 hPa 0,0 l/m 14,0 km/h N 4,1 C 2,9 C 30,2 km/h
10.12.2013 03:00 7,7 C 79 % 1030,7 hPa 0,0 l/m 11,4 km/h N 4,3 C 4,2 C 27,4 km/h
10.12.2013 04:00 7,7 C 79 % 1031,6 hPa 0,0 l/m 13,9 km/h N 4,3 C 2,9 C 28,6 km/h
10.12.2013 05:00 7,0 C 84 % 1032,1 hPa 0,0 l/m 11,0 km/h N 4,4 C 3,7 C 28,1 km/h
10.12.2013 06:00 6,7 C 85 % 1032,8 hPa 0,3 l/m 7,0 km/h N 4,4 C 6,2 C 18,9 km/h
10.12.2013 07:00 6,8 C 85 % 1033,4 hPa 0,0 l/m 7,3 km/h N 4,4 C 6,0 C 20,9 km/h
10.12.2013 08:00 7,1 C 85 % 1034,4 hPa 0,0 l/m 7,7 km/h N 4,7 C 5,9 C 16,9 km/h
10.12.2013 09:00 7,3 C 85 % 1035,1 hPa 0,0 l/m 7,7 km/h N 4,9 C 6,3 C 17,7 km/h
10.12.2013 10:00 7,7 C 84 % 1035,7 hPa 0,0 l/m 7,0 km/h N 5,1 C 7,2 C 16,9 km/h
10.12.2013 11:00 7,6 C 83 % 1035,9 hPa 0,0 l/m 2,5 km/h N 4,9 C 7,6 C 12,9 km/h
10.12.2013 12:00 7,0 C 84 % 1036,3 hPa 0,0 l/m 0,4 km/h N 4,4 C 7,0 C 2,8 km/h
10.12.2013 13:00 7,0 C 85 % 1036,5 hPa 0,0 l/m 0,2 km/h N 4,6 C 7,0 C 2,8 km/h
10.12.2013 14:00 6,3 C 85 % 1036,8 hPa 0,0 l/m 0,1 km/h N 4,0 C 6,3 C 1,2 km/h
10.12.2013 15:00 5,9 C 84 % 1037,1 hPa 0,0 l/m 0,2 km/h N 3,4 C 5,9 C 1,6 km/h
10.12.2013 16:00 5,5 C 83 % 1037,4 hPa 0,0 l/m 0,1 km/h N 2,9 C 5,5 C 2,0 km/h
10.12.2013 17:00 5,4 C 83 % 1038,0 hPa 0,0 l/m 0,0 km/h N 2,7 C 5,4 C 0,8 km/h
10.12.2013 18:00 5,2 C 84 % 1038,0 hPa 0,0 l/m 0,0 km/h N 2,7 C 5,2 C 0,0 km/h
10.12.2013 19:00 5,3 C 84 % 1038,1 hPa 0,0 l/m 0,0 km/h N 2,8 C 5,3 C 0,0 km/h
10.12.2013 20:00 5,3 C 85 % 1038,2 hPa 0,0 l/m 0,1 km/h N 3,0 C 5,3 C 1,2 km/h
10.12.2013 21:00 5,3 C 84 % 1038,4 hPa 0,0 l/m 0,0 km/h N 2,8 C 5,3 C 1,2 km/h
10.12.2013 22:00 4,9 C 81 % 1038,6 hPa 0,0 l/m 0,7 km/h N 1,9 C 4,9 C 4,4 km/h
10.12.2013 23:00 5,0 C 76 % 1038,3 hPa 0,0 l/m 0,9 km/h N 1,1 C 5,0 C 4,8 km/h
11.12.2013 00:00 4,3 C 72 % 1037,8 hPa 0,0 l/m 1,2 km/h N -0,3 C 4,3 C 6,8 km/h
11.12.2013 01:00 4,0 C 73 % 1037,6 hPa 0,0 l/m 0,9 km/h N -0,4 C 4,0 C 6,0 km/h
11.12.2013 02:00 3,9 C 76 % 1037,6 hPa 0,0 l/m 0,2 km/h N 0,1 C 3,9 C 2,8 km/h
11.12.2013 03:00 3,6 C 80 % 1037,5 hPa 0,0 l/m 0,1 km/h N 0,4 C 3,6 C 3,6 km/h
11.12.2013 04:00 2,9 C 81 % 1037,6 hPa 0,0 l/m 0,1 km/h N 0,1 C 2,9 C 2,8 km/h
11.12.2013 05:00 2,3 C 82 % 1037,8 hPa 0,0 l/m 0,0 km/h N -0,5 C 2,3 C 0,8 km/h
11.12.2013 06:00 1,8 C 82 % 1037,6 hPa 0,0 l/m 0,1 km/h N -0,9 C 1,8 C 2,8 km/h
11.12.2013 07:00 1,1 C 82 % 1037,4 hPa 0,0 l/m 0,0 km/h N -1,6 C 1,1 C 2,4 km/h
11.12.2013 08:00 0,7 C 82 % 1037,6 hPa 0,0 l/m 0,0 km/h N -1,9 C 0,7 C 1,2 km/h
11.12.2013 09:00 0,9 C 83 % 1038,2 hPa 0,0 l/m 0,2 km/h N -1,7 C 0,9 C 2,8 km/h
11.12.2013 10:00 1,2 C 82 % 1038,4 hPa 0,0 l/m 0,1 km/h N -1,6 C 1,2 C 2,8 km/h
11.12.2013 11:00 1,3 C 80 % 1037,9 hPa 0,0 l/m 0,2 km/h N -1,7 C 1,3 C 2,8 km/h
11.12.2013 12:00 1,7 C 80 % 1037,3 hPa 0,0 l/m 0,1 km/h N -1,3 C 1,7 C 1,6 km/h
11.12.2013 13:00 2,2 C 79 % 1036,8 hPa 0,0 l/m 0,1 km/h N -1,1 C 2,2 C 2,4 km/h
11.12.2013 14:00 2,3 C 79 % 1036,4 hPa 0,0 l/m 0,2 km/h N -0,9 C 2,3 C 2,8 km/h
11.12.2013 15:00 2,4 C 79 % 1036,2 hPa 0,0 l/m 0,1 km/h N -0,9 C 2,4 C 2,4 km/h
11.12.2013 16:00 2,2 C 79 % 1036,5 hPa 0,0 l/m 0,0 km/h N -1,0 C 2,2 C 1,6 km/h
11.12.2013 17:00 2,0 C 79 % 1036,4 hPa 0,0 l/m 0,0 km/h N -1,3 C 2,0 C 0,4 km/h
11.12.2013 18:00 1,9 C 80 % 1036,2 hPa 0,0 l/m 0,0 km/h N -1,2 C 1,9 C 0,8 km/h
11.12.2013 19:00 1,7 C 81 % 1036,4 hPa 0,0 l/m 0,0 km/h N -1,3 C 1,7 C 0,8 km/h
11.12.2013 20:00 1,7 C 81 % 1036,4 hPa 0,0 l/m 0,0 km/h N -1,2 C 1,7 C 0,0 km/h
11.12.2013 21:00 1,7 C 82 % 1036,4 hPa 0,0 l/m 0,0 km/h N -1,0 C 1,7 C 0,4 km/h
11.12.2013 22:00 1,8 C 83 % 1036,4 hPa 0,0 l/m 0,0 km/h N -0,9 C 1,8 C 1,2 km/h
11.12.2013 23:00 1,8 C 83 % 1036,4 hPa 0,0 l/m 0,0 km/h N -0,8 C 1,8 C 0,0 km/h
12.12.2013 00:00 1,9 C 84 % 1035,9 hPa 0,0 l/m 0,0 km/h N -0,6 C 1,9 C 0,0 km/h
12.12.2013 01:00 2,1 C 85 % 1035,5 hPa 0,0 l/m 0,0 km/h N -0,3 C 2,1 C 0,8 km/h
12.12.2013 02:00 2,4 C 85 % 1035,4 hPa 0,0 l/m 0,4 km/h N 0,1 C 2,4 C 3,6 km/h
12.12.2013 03:00 2,3 C 86 % 1035,4 hPa 0,0 l/m 0,1 km/h N 0,1 C 2,3 C 2,4 km/h
12.12.2013 04:00 1,8 C 86 % 1035,1 hPa 0,0 l/m 0,0 km/h N -0,4 C 1,8 C 0,4 km/h
12.12.2013 05:00 1,7 C 85 % 1035,0 hPa 0,0 l/m 0,0 km/h N -0,5 C 1,7 C 0,4 km/h
12.12.2013 06:00 1,7 C 86 % 1034,9 hPa 0,0 l/m 0,0 km/h N -0,4 C 1,7 C 1,2 km/h
12.12.2013 07:00 1,7 C 86 % 1034,7 hPa 0,0 l/m 0,0 km/h N -0,4 C 1,7 C 0,4 km/h
12.12.2013 08:00 1,7 C 86 % 1034,3 hPa 0,0 l/m 0,4 km/h N -0,5 C 1,7 C 3,2 km/h
12.12.2013 09:00 1,8 C 85 % 1034,5 hPa 0,0 l/m 0,0 km/h N -0,5 C 1,8 C 2,0 km/h
12.12.2013 10:00 1,9 C 85 % 1034,6 hPa 0,0 l/m 0,6 km/h N -0,4 C 1,9 C 3,6 km/h
12.12.2013 11:00 1,9 C 85 % 1034,1 hPa 0,0 l/m 1,2 km/h N -0,4 C 1,9 C 6,4 km/h
12.12.2013 12:00 1,9 C 84 % 1033,4 hPa 0,0 l/m 1,3 km/h N -0,5 C 1,9 C 6,4 km/h
12.12.2013 13:00 1,9 C 84 % 1033,0 hPa 0,0 l/m 1,0 km/h N -0,5 C 1,9 C 5,6 km/h
12.12.2013 14:00 1,9 C 84 % 1032,4 hPa 0,0 l/m 0,8 km/h N -0,6 C 1,9 C 4,0 km/h
12.12.2013 15:00 1,9 C 83 % 1032,0 hPa 0,0 l/m 0,5 km/h N -0,7 C 1,9 C 2,4 km/h
12.12.2013 16:00 1,8 C 83 % 1032,0 hPa 0,0 l/m 0,1 km/h N -0,7 C 1,8 C 2,4 km/h
12.12.2013 17:00 1,6 C 83 % 1032,0 hPa 0,0 l/m 0,3 km/h N -1,0 C 1,6 C 2,8 km/h
12.12.2013 18:00 1,5 C 82 % 1031,8 hPa 0,0 l/m 0,1 km/h N -1,2 C 1,5 C 2,4 km/h
12.12.2013 19:00 1,3 C 82 % 1031,4 hPa 0,0 l/m 0,2 km/h N -1,4 C 1,3 C 3,2 km/h
12.12.2013 20:00 1,3 C 82 % 1031,2 hPa 0,0 l/m 0,4 km/h N -1,4 C 1,3 C 4,0 km/h
12.12.2013 21:00 1,2 C 81 % 1031,1 hPa 0,0 l/m 0,3 km/h N -1,6 C 1,2 C 2,8 km/h
12.12.2013 22:00 1,2 C 81 % 1030,9 hPa 0,0 l/m 0,0 km/h N -1,7 C 1,2 C 1,6 km/h
12.12.2013 23:00 1,1 C 81 % 1030,6 hPa 0,0 l/m 0,4 km/h N -1,7 C 1,1 C 4,0 km/h
13.12.2013 00:00 0,9 C 81 % 1030,1 hPa 0,3 l/m 0,0 km/h N -2,0 C 0,9 C 0,8 km/h
13.12.2013 01:00 0,8 C 81 % 1029,5 hPa 0,0 l/m 0,3 km/h N -2,1 C 0,8 C 2,8 km/h
13.12.2013 02:00 0,5 C 81 % 1029,2 hPa 0,0 l/m 1,3 km/h N -2,4 C 0,5 C 6,0 km/h
13.12.2013 03:00 0,3 C 81 % 1028,9 hPa 0,0 l/m 1,0 km/h N -2,6 C 0,3 C 5,2 km/h
13.12.2013 04:00 0,3 C 81 % 1028,8 hPa 0,0 l/m 3,0 km/h N -2,6 C 0,3 C 9,6 km/h
13.12.2013 05:00 0,3 C 81 % 1028,8 hPa 0,0 l/m 2,5 km/h N -2,6 C 0,3 C 7,6 km/h
13.12.2013 06:00 0,2 C 81 % 1029,0 hPa 0,0 l/m 1,0 km/h N -2,7 C 0,2 C 6,0 km/h
13.12.2013 07:00 0,3 C 81 % 1028,8 hPa 0,0 l/m 0,5 km/h N -2,5 C 0,3 C 3,6 km/h
13.12.2013 08:00 0,6 C 81 % 1028,7 hPa 0,0 l/m 0,0 km/h N -2,2 C 0,6 C 0,4 km/h
13.12.2013 09:00 1,0 C 81 % 1028,5 hPa 0,0 l/m 0,2 km/h N -1,9 C 1,0 C 2,4 km/h
13.12.2013 10:00 1,4 C 81 % 1028,6 hPa 0,0 l/m 0,3 km/h N -1,6 C 1,4 C 3,2 km/h
13.12.2013 11:00 1,9 C 81 % 1027,9 hPa 0,0 l/m 1,3 km/h N -1,0 C 1,9 C 6,4 km/h
13.12.2013 12:00 2,7 C 83 % 1027,3 hPa 0,0 l/m 0,8 km/h N 0,2 C 2,7 C 5,2 km/h
13.12.2013 13:00 3,3 C 84 % 1026,7 hPa 0,0 l/m 0,5 km/h N 1,0 C 3,3 C 4,4 km/h
13.12.2013 14:00 3,4 C 83 % 1026,3 hPa 0,0 l/m 1,2 km/h N 0,8 C 3,4 C 5,2 km/h
13.12.2013 15:00 3,0 C 84 % 1026,4 hPa 0,0 l/m 0,6 km/h N 0,6 C 3,0 C 4,4 km/h
13.12.2013 16:00 2,7 C 85 % 1026,5 hPa 0,0 l/m 1,0 km/h N 0,4 C 2,7 C 5,2 km/h
13.12.2013 17:00 2,4 C 85 % 1026,5 hPa 0,0 l/m 1,2 km/h N 0,2 C 2,4 C 5,6 km/h
13.12.2013 18:00 2,2 C 86 % 1026,4 hPa 0,0 l/m 0,7 km/h N 0,1 C 2,2 C 4,4 km/h
13.12.2013 19:00 2,1 C 86 % 1026,6 hPa 0,0 l/m 0,0 km/h N 0,0 C 2,1 C 0,4 km/h
13.12.2013 20:00 2,0 C 86 % 1026,8 hPa 0,0 l/m 0,2 km/h N -0,1 C 2,0 C 2,4 km/h
13.12.2013 21:00 1,7 C 86 % 1027,0 hPa 0,0 l/m 1,0 km/h N -0,3 C 1,7 C 5,6 km/h
13.12.2013 22:00 1,3 C 86 % 1027,1 hPa 0,0 l/m 0,5 km/h N -0,7 C 1,3 C 4,0 km/h
13.12.2013 23:00 1,3 C 86 % 1027,1 hPa 0,0 l/m 0,7 km/h N -0,8 C 1,3 C 4,8 km/h
14.12.2013 00:00 1,0 C 86 % 1026,9 hPa 0,0 l/m 1,0 km/h N -1,1 C 1,0 C 5,6 km/h
14.12.2013 01:00 0,7 C 85 % 1027,0 hPa 0,0 l/m 0,8 km/h N -1,5 C 0,7 C 5,6 km/h
14.12.2013 02:00 0,3 C 85 % 1027,1 hPa 0,0 l/m 1,7 km/h N -2,0 C 0,3 C 7,2 km/h
14.12.2013 03:00 0,2 C 84 % 1027,1 hPa 0,0 l/m 0,8 km/h N -2,2 C 0,2 C 4,8 km/h
14.12.2013 04:00 0,2 C 83 % 1027,3 hPa 0,0 l/m 1,3 km/h N -2,3 C 0,2 C 6,4 km/h
14.12.2013 05:00 0,3 C 83 % 1027,3 hPa 0,0 l/m 1,4 km/h N -2,3 C 0,3 C 5,2 km/h
14.12.2013 06:00 0,3 C 82 % 1027,5 hPa 0,0 l/m 1,9 km/h N -2,5 C 0,3 C 8,0 km/h
14.12.2013 07:00 0,1 C 82 % 1027,8 hPa 0,0 l/m 2,3 km/h N -2,6 C 0,1 C 7,6 km/h
14.12.2013 08:00 0,2 C 82 % 1028,1 hPa 0,0 l/m 2,7 km/h N -2,5 C 0,2 C 8,0 km/h
14.12.2013 09:00 0,4 C 82 % 1028,5 hPa 0,0 l/m 2,2 km/h N -2,3 C 0,4 C 8,0 km/h
14.12.2013 10:00 0,5 C 82 % 1028,9 hPa 0,0 l/m 2,6 km/h N -2,2 C 0,5 C 8,0 km/h
14.12.2013 11:00 0,9 C 83 % 1028,7 hPa 0,0 l/m 3,4 km/h N -1,8 C 0,9 C 10,1 km/h
14.12.2013 12:00 1,4 C 85 % 1028,4 hPa 0,0 l/m 3,8 km/h N -0,9 C 1,4 C 11,7 km/h
14.12.2013 13:00 2,1 C 85 % 1028,4 hPa 0,0 l/m 4,6 km/h N -0,1 C 2,1 C 13,3 km/h
14.12.2013 14:00 2,0 C 85 % 1028,3 hPa 0,0 l/m 4,4 km/h N -0,2 C 2,0 C 12,1 km/h
14.12.2013 15:00 1,5 C 85 % 1028,7 hPa 0,0 l/m 3,5 km/h N -0,8 C 1,5 C 10,9 km/h
14.12.2013 16:00 0,7 C 86 % 1029,2 hPa 0,0 l/m 1,9 km/h N -1,4 C 0,7 C 8,4 km/h
14.12.2013 17:00 0,0 C 86 % 1029,8 hPa 0,0 l/m 0,2 km/h N -2,1 C 0,0 C 3,2 km/h
14.12.2013 18:00 -0,5 C 86 % 1030,5 hPa 0,0 l/m 0,6 km/h N -2,6 C -0,5 C 5,6 km/h
14.12.2013 19:00 -0,9 C 86 % 1031,1 hPa 0,0 l/m 0,1 km/h N -3,0 C -0,9 C 2,0 km/h
14.12.2013 20:00 -1,5 C 86 % 1031,7 hPa 0,0 l/m 0,0 km/h N -3,6 C -1,5 C 1,6 km/h
14.12.2013 21:00 -0,9 C 84 % 1032,0 hPa 0,0 l/m 0,7 km/h N -3,2 C -0,9 C 4,4 km/h
14.12.2013 22:00 0,8 C 82 % 1031,9 hPa 0,0 l/m 3,4 km/h N -2,0 C 0,2 C 16,1 km/h
14.12.2013 23:00 4,7 C 83 % 1032,1 hPa 0,3 l/m 7,8 km/h N 2,0 C 3,3 C 23,8 km/h
15.12.2013 00:00 5,1 C 79 % 1032,3 hPa 0,0 l/m 5,3 km/h N 1,7 C 5,0 C 22,9 km/h
15.12.2013 01:00 5,2 C 79 % 1032,2 hPa 0,0 l/m 5,1 km/h N 1,9 C 5,2 C 14,9 km/h
15.12.2013 02:00 5,4 C 79 % 1032,2 hPa 0,0 l/m 6,0 km/h N 2,1 C 5,2 C 20,1 km/h
15.12.2013 03:00 5,3 C 79 % 1032,1 hPa 0,0 l/m 7,7 km/h N 2,0 C 4,1 C 20,9 km/h
15.12.2013 04:00 5,7 C 78 % 1032,2 hPa 0,0 l/m 11,4 km/h N 2,2 C 2,0 C 27,4 km/h
15.12.2013 05:00 5,9 C 77 % 1032,3 hPa 0,0 l/m 11,2 km/h N 2,2 C 2,3 C 29,4 km/h
15.12.2013 06:00 5,8 C 76 % 1032,5 hPa 0,0 l/m 12,1 km/h N 1,9 C 1,7 C 29,4 km/h
15.12.2013 07:00 5,9 C 74 % 1032,9 hPa 0,0 l/m 14,3 km/h N 1,7 C 0,6 C 31,0 km/h
15.12.2013 08:00 5,9 C 72 % 1033,1 hPa 0,0 l/m 12,4 km/h N 1,3 C 1,6 C 30,6 km/h
15.12.2013 09:00 6,0 C 70 % 1033,3 hPa 0,0 l/m 9,6 km/h N 0,9 C 3,3 C 25,8 km/h
15.12.2013 10:00 6,7 C 68 % 1033,2 hPa 0,0 l/m 3,1 km/h N 1,2 C 6,7 C 11,7 km/h
15.12.2013 11:00 8,4 C 61 % 1032,6 hPa 0,0 l/m 5,1 km/h N 1,4 C 8,1 C 16,1 km/h
15.12.2013 12:00 9,1 C 58 % 1031,9 hPa 0,0 l/m 8,1 km/h N 1,3 C 7,9 C 22,9 km/h
15.12.2013 13:00 9,4 C 53 % 1031,6 hPa 0,0 l/m 10,5 km/h N 0,2 C 6,6 C 27,3 km/h
15.12.2013 14:00 9,4 C 50 % 1031,6 hPa 0,0 l/m 6,3 km/h N -0,4 C 8,9 C 20,9 km/h
15.12.2013 15:00 8,8 C 49 % 1032,0 hPa 0,0 l/m 4,3 km/h N -1,3 C 8,8 C 16,9 km/h
15.12.2013 16:00 7,8 C 52 % 1032,2 hPa 0,0 l/m 2,0 km/h N -1,6 C 7,8 C 9,3 km/h
15.12.2013 17:00 6,5 C 56 % 1032,3 hPa 0,0 l/m 0,4 km/h N -1,7 C 6,5 C 6,0 km/h
15.12.2013 18:00 5,2 C 61 % 1032,3 hPa 0,0 l/m 0,2 km/h N -1,7 C 5,2 C 2,0 km/h
15.12.2013 19:00 4,8 C 72 % 1032,6 hPa 0,0 l/m 0,5 km/h N 0,2 C 4,8 C 3,2 km/h
15.12.2013 20:00 3,2 C 76 % 1033,2 hPa 0,0 l/m 0,1 km/h N -0,6 C 3,2 C 1,2 km/h
15.12.2013 21:00 0,9 C 81 % 1033,6 hPa 0,0 l/m 0,1 km/h N -2,1 C 0,9 C 2,4 km/h
15.12.2013 22:00 -0,3 C 84 % 1033,8 hPa 0,0 l/m 0,1 km/h N -2,7 C -0,3 C 0,8 km/h
15.12.2013 23:00 -0,1 C 85 % 1033,8 hPa 0,0 l/m 0,3 km/h N -2,3 C -0,1 C 3,2 km/h
Min-Datum _ 14.12.13 15.12.13 09.12.13 - 10.12.13 - 14.12.13 09.12.13 10.12.13
_ Min-Zeit 20:30 14:30 07:30 - 11:45 - 20:30 17:00 12:00
Minimum _ -1,6 C 49 % 1022,1 hPa - 0,0 km/h - -3,8 C -4,0 C 0,0 km/h
Max-Datum _ 15.12.13 12.12.13 10.12.13 09.12.13 09.12.13 - 10.12.13 15.12.13 09.12.13
_ Max-Zeit 14:30 03:15 22:15 13:00 17:00 - 10:30 14:15 07:15
Maximum _ 9,6 C 86 % 1038,7 hPa 2,1 l/m 27,5 km/h
N
- 5,1 C 9,5 C 57,9 km/h
N
Durchschnitt _ 3,6 C 79 % 1031,3 hPa #8,8 l/m 5,0 km/h N 0,3 C 2,1 C 13,3 km/h